Time;durP1;ratioP1;P1;durP2;ratioP2;P2;SDS_P1;SDS_P2;PMS_P1;PMS_P2;Temp;Humidity;BMP_temperature;BMP_pressure;BME280_temperature;BME280_humidity;BME280_pressure;Samples;Min_cycle;Max_cycle;Signal;HPM_P1;HPM_P2
2022/08/22 00:01:32;;;;;;;10.52;2.40;;;;;;;;;;5259175;28;20063;-67
2022/08/22 00:04:11;;;;;;;5.40;1.77;;;;;;;;;;5259912;28;20329;-67
2022/08/22 00:07:06;;;;;;;8.65;2.00;;;;;;;;;;5258371;28;20460;-67
2022/08/22 00:09:52;;;;;;;6.78;1.38;;;;;;;;;;5259371;28;20069;-67
2022/08/22 00:12:31;;;;;;;5.97;1.67;;;;;;;;;;5258722;28;20090;-67
2022/08/22 00:15:11;;;;;;;8.13;2.25;;;;;;;;;;5260064;28;20039;-67
2022/08/22 00:17:54;;;;;;;14.65;2.30;;;;;;;;;;5260299;28;20037;-67
2022/08/22 00:20:38;;;;;;;9.15;2.00;;;;;;;;;;5259525;28;20403;-67
2022/08/22 00:23:26;;;;;;;11.38;2.58;;;;;;;;;;5260548;28;20466;-67
2022/08/22 00:26:05;;;;;;;10.88;1.88;;;;;;;;;;5259947;28;20033;-67
2022/08/22 00:28:43;;;;;;;8.35;1.60;;;;;;;;;;5260199;28;20357;-67
2022/08/22 00:31:32;;;;;;;15.75;1.83;;;;;;;;;;5260628;28;20029;-67
2022/08/22 00:34:09;;;;;;;15.80;2.42;;;;;;;;;;5259744;28;20021;-67
2022/08/22 00:36:42;;;;;;;16.90;2.67;;;;;;;;;;5260189;28;20017;-67
2022/08/22 00:39:17;;;;;;;11.68;2.25;;;;;;;;;;5260565;28;20025;-67
2022/08/22 00:42:07;;;;;;;10.95;1.85;;;;;;;;;;5259130;28;20020;-67
2022/08/22 00:44:38;;;;;;;8.70;2.38;;;;;;;;;;5260088;28;20028;-67
2022/08/22 00:47:09;;;;;;;10.98;2.10;;;;;;;;;;5259602;28;20025;-67
2022/08/22 00:49:43;;;;;;;12.73;1.70;;;;;;;;;;5259985;28;20460;-67
2022/08/22 00:52:15;;;;;;;7.57;2.03;;;;;;;;;;5260382;28;20290;-66
2022/08/22 00:55:05;;;;;;;9.98;2.40;;;;;;;;;;5258893;28;20025;-67
2022/08/22 00:57:45;;;;;;;6.80;1.80;;;;;;;;;;5259670;28;20105;-66
2022/08/22 01:00:18;;;;;;;12.02;1.80;;;;;;;;;;5260441;28;20024;-67
2022/08/22 01:02:59;;;;;;;10.70;2.05;;;;;;;;;;5258723;28;20099;-67
2022/08/22 01:05:49;;;;;;;11.68;1.80;;;;;;;;;;5259830;28;20041;-67
2022/08/22 01:08:32;;;;;;;9.23;1.92;;;;;;;;;;5259457;28;20056;-67
2022/08/22 01:11:28;;;;;;;8.63;2.38;;;;;;;;;;5260120;28;20017;-67
2022/08/22 01:14:23;;;;;;;10.32;2.20;;;;;;;;;;5260430;28;20103;-67
2022/08/22 01:16:58;;;;;;;11.40;2.72;;;;;;;;;;5259268;28;20357;-67
2022/08/22 01:19:44;;;;;;;7.55;2.35;;;;;;;;;;5259584;28;20127;-67
2022/08/22 01:22:18;;;;;;;9.73;3.85;;;;;;;;;;5259575;28;20491;-66
2022/08/22 01:25:17;;;;;;;9.85;5.07;;;;;;;;;;5259571;28;20039;-68
2022/08/22 01:27:48;;;;;;;9.85;4.43;;;;;;;;;;5259511;28;20108;-67
2022/08/22 01:30:34;;;;;;;10.23;4.28;;;;;;;;;;5259447;28;20112;-67
2022/08/22 01:33:24;;;;;;;10.15;5.13;;;;;;;;;;5260099;28;20061;-67
2022/08/22 01:36:06;;;;;;;13.95;4.80;;;;;;;;;;5261516;28;20027;-67
2022/08/22 01:38:56;;;;;;;11.05;4.85;;;;;;;;;;5262701;28;20471;-67
2022/08/22 01:41:51;;;;;;;8.30;4.20;;;;;;;;;;5263204;28;20021;-67
2022/08/22 01:44:42;;;;;;;9.75;4.35;;;;;;;;;;5262789;28;20017;-67
2022/08/22 01:47:17;;;;;;;10.82;4.20;;;;;;;;;;5264004;28;20433;-67
2022/08/22 01:49:57;;;;;;;8.07;4.25;;;;;;;;;;5263168;28;20108;-67
2022/08/22 01:52:35;;;;;;;10.13;4.28;;;;;;;;;;5262203;28;20043;-67
2022/08/22 01:55:19;;;;;;;11.80;4.60;;;;;;;;;;5263506;28;20045;-67
2022/08/22 01:57:52;;;;;;;9.90;4.38;;;;;;;;;;5262023;28;20111;-67
2022/08/22 02:00:25;;;;;;;11.23;4.80;;;;;;;;;;5263346;28;20017;-67
2022/08/22 02:03:12;;;;;;;15.85;5.05;;;;;;;;;;5263154;28;20045;-67
2022/08/22 02:05:50;;;;;;;8.55;4.50;;;;;;;;;;5261904;28;20136;-67
2022/08/22 02:08:30;;;;;;;8.35;4.35;;;;;;;;;;5263400;28;20021;-67
2022/08/22 02:11:03;;;;;;;10.30;4.55;;;;;;;;;;5263212;28;20017;-67
2022/08/22 02:13:53;;;;;;;11.10;4.97;;;;;;;;;;5261789;28;20128;-67
2022/08/22 02:16:38;;;;;;;11.05;4.93;;;;;;;;;;5262885;28;20021;-67
2022/08/22 02:19:12;;;;;;;9.45;4.35;;;;;;;;;;5262356;28;20016;-66
2022/08/22 02:21:47;;;;;;;13.07;4.95;;;;;;;;;;5262334;28;20100;-67
2022/08/22 02:24:24;;;;;;;9.82;4.80;;;;;;;;;;5262737;28;20048;-66
2022/08/22 02:27:03;;;;;;;8.57;4.28;;;;;;;;;;5262124;28;20494;-67
2022/08/22 02:29:39;;;;;;;13.05;5.03;;;;;;;;;;5262322;28;20384;-67
2022/08/22 02:32:17;;;;;;;11.82;5.55;;;;;;;;;;5262742;28;20017;-66
2022/08/22 02:34:52;;;;;;;11.32;4.78;;;;;;;;;;5261591;28;20017;-67
2022/08/22 02:37:38;;;;;;;8.48;4.47;;;;;;;;;;5262942;28;20044;-67
2022/08/22 02:40:13;;;;;;;8.52;4.43;;;;;;;;;;5261936;28;20383;-67
2022/08/22 02:42:48;;;;;;;12.35;4.63;;;;;;;;;;5261843;28;20361;-67
2022/08/22 02:45:29;;;;;;;11.65;4.63;;;;;;;;;;5262591;28;20025;-67
2022/08/22 02:48:13;;;;;;;9.48;4.65;;;;;;;;;;5260642;28;20051;-68
2022/08/22 02:50:44;;;;;;;10.25;4.72;;;;;;;;;;5261719;28;20021;-68
2022/08/22 02:53:21;;;;;;;7.97;3.70;;;;;;;;;;5262249;28;20013;-68
2022/08/22 02:56:02;;;;;;;10.80;4.68;;;;;;;;;;5260858;28;20309;-68
2022/08/22 02:58:36;;;;;;;9.30;5.30;;;;;;;;;;5261787;28;20027;-68
2022/08/22 03:01:13;;;;;;;10.27;4.65;;;;;;;;;;5261210;28;20059;-68
2022/08/22 03:03:45;;;;;;;11.82;5.63;;;;;;;;;;5261466;28;20108;-68
2022/08/22 03:06:16;;;;;;;7.90;4.63;;;;;;;;;;5262040;28;20536;-68
2022/08/22 03:09:01;;;;;;;8.88;4.60;;;;;;;;;;5260777;28;20021;-68
2022/08/22 03:11:35;;;;;;;11.15;4.97;;;;;;;;;;5261223;28;20021;-68
2022/08/22 03:14:10;;;;;;;12.82;5.75;;;;;;;;;;5261845;28;20503;-68
2022/08/22 03:16:53;;;;;;;10.23;5.95;;;;;;;;;;5260649;28;20017;-68
2022/08/22 03:19:47;;;;;;;13.68;5.75;;;;;;;;;;5261582;28;20059;-68
2022/08/22 03:22:30;;;;;;;11.20;5.88;;;;;;;;;;5260974;28;20028;-68
2022/08/22 03:25:19;;;;;;;11.10;6.00;;;;;;;;;;5261879;28;20028;-68
2022/08/22 03:27:53;;;;;;;11.27;5.97;;;;;;;;;;5261132;28;20033;-68
2022/08/22 03:30:35;;;;;;;11.52;6.20;;;;;;;;;;5260593;28;20021;-68
2022/08/22 03:33:12;;;;;;;11.82;6.15;;;;;;;;;;5261764;28;20036;-68
2022/08/22 03:35:43;;;;;;;15.75;5.88;;;;;;;;;;5260906;28;20047;-68
2022/08/22 03:38:21;;;;;;;10.65;5.10;;;;;;;;;;5260857;28;20549;-68
2022/08/22 03:41:07;;;;;;;12.38;6.40;;;;;;;;;;5260852;28;20029;-68
2022/08/22 03:43:54;;;;;;;10.80;6.10;;;;;;;;;;5260210;28;20520;-68
2022/08/22 03:46:44;;;;;;;14.98;6.15;;;;;;;;;;5261105;28;20477;-68
2022/08/22 03:49:15;;;;;;;10.00;6.32;;;;;;;;;;5261311;28;20036;-68
2022/08/22 03:51:53;;;;;;;8.63;5.77;;;;;;;;;;5259959;28;20025;-68
2022/08/22 03:54:30;;;;;;;11.55;6.30;;;;;;;;;;5261096;28;20351;-69
2022/08/22 03:57:19;;;;;;;9.93;6.53;;;;;;;;;;5260610;28;20036;-68
2022/08/22 03:59:51;;;;;;;11.27;6.38;;;;;;;;;;5260254;28;20094;-68
2022/08/22 04:02:26;;;;;;;16.20;6.97;;;;;;;;;;5261008;28;20049;-66
2022/08/22 04:05:17;;;;;;;14.57;5.95;;;;;;;;;;5260201;28;20032;-67
2022/08/22 04:08:01;;;;;;;13.13;7.15;;;;;;;;;;5260482;28;20162;-67
2022/08/22 04:10:48;;;;;;;10.95;6.40;;;;;;;;;;5260246;28;20033;-67
2022/08/22 04:13:38;;;;;;;10.05;5.80;;;;;;;;;;5260193;28;20048;-67
2022/08/22 04:16:09;;;;;;;12.93;6.78;;;;;;;;;;5260844;28;20024;-67
2022/08/22 04:19:06;;;;;;;13.43;6.95;;;;;;;;;;5259333;28;20029;-67
2022/08/22 04:21:48;;;;;;;10.85;6.22;;;;;;;;;;5260359;28;20028;-67
2022/08/22 04:24:19;;;;;;;13.23;7.38;;;;;;;;;;5260806;28;20029;-67
2022/08/22 04:27:04;;;;;;;14.18;6.50;;;;;;;;;;5259024;28;20036;-67
2022/08/22 04:29:40;;;;;;;11.57;5.85;;;;;;;;;;5260098;28;20028;-67
2022/08/22 04:32:16;;;;;;;19.33;6.80;;;;;;;;;;5259790;28;20017;-66
2022/08/22 04:34:51;;;;;;;10.10;6.00;;;;;;;;;;5259709;28;20537;-67
2022/08/22 04:37:42;;;;;;;12.55;6.72;;;;;;;;;;5260303;28;20040;-67
2022/08/22 04:40:18;;;;;;;12.63;5.80;;;;;;;;;;5259403;28;20025;-67
2022/08/22 04:43:07;;;;;;;11.38;5.88;;;;;;;;;;5259922;28;20096;-68
2022/08/22 04:45:51;;;;;;;15.75;5.90;;;;;;;;;;5259763;28;20071;-66
2022/08/22 04:48:29;;;;;;;13.55;6.00;;;;;;;;;;5259751;28;20021;-66
2022/08/22 04:51:11;;;;;;;8.85;6.15;;;;;;;;;;5260587;28;20480;-68
2022/08/22 04:54:01;;;;;;;11.48;6.18;;;;;;;;;;5259103;28;20029;-66
2022/08/22 04:56:38;;;;;;;13.75;6.68;;;;;;;;;;5259638;28;20052;-66
2022/08/22 04:59:10;;;;;;;16.17;6.38;;;;;;;;;;5260597;28;20321;-66
2022/08/22 05:02:05;;;;;;;13.40;6.03;;;;;;;;;;5258962;28;20037;-66
2022/08/22 05:04:47;;;;;;;9.65;6.15;;;;;;;;;;5259595;28;20468;-67
2022/08/22 05:07:21;;;;;;;11.02;5.72;;;;;;;;;;5259466;28;20021;-67
2022/08/22 05:09:56;;;;;;;13.77;6.88;;;;;;;;;;5259721;28;20378;-66
2022/08/22 05:12:30;;;;;;;13.35;5.85;;;;;;;;;;5263665;28;20028;-67
2022/08/22 05:15:18;;;;;;;16.27;6.97;;;;;;;;;;5263153;28;20020;-67
2022/08/22 05:17:51;;;;;;;14.33;6.30;;;;;;;;;;5263383;28;20025;-68
2022/08/22 05:20:24;;;;;;;11.95;5.97;;;;;;;;;;5264255;28;20299;-67
2022/08/22 05:22:58;;;;;;;12.80;6.32;;;;;;;;;;5263081;28;20044;-67
2022/08/22 05:25:32;;;;;;;14.80;7.25;;;;;;;;;;5263161;28;20518;-67
2022/08/22 05:28:07;;;;;;;12.57;6.53;;;;;;;;;;5264097;28;20024;-67
2022/08/22 05:30:38;;;;;;;11.13;6.25;;;;;;;;;;5262676;28;20467;-68
2022/08/22 05:33:13;;;;;;;12.13;6.57;;;;;;;;;;5263757;28;20113;-67
2022/08/22 05:35:50;;;;;;;11.38;6.45;;;;;;;;;;5262602;28;20381;-67
2022/08/22 05:38:24;;;;;;;13.00;6.50;;;;;;;;;;5263497;28;20017;-67
2022/08/22 05:41:03;;;;;;;11.13;6.60;;;;;;;;;;5263493;28;20476;-68
2022/08/22 05:43:36;;;;;;;15.60;7.00;;;;;;;;;;5262518;28;20053;-67
2022/08/22 05:46:33;;;;;;;16.08;7.10;;;;;;;;;;5263534;28;20079;-67
2022/08/22 05:49:10;;;;;;;16.58;7.05;;;;;;;;;;5246050;28;20028;-67
2022/08/22 05:51:46;;;;;;;13.43;6.35;;;;;;;;;;5262155;28;20388;-67
2022/08/22 05:54:21;;;;;;;13.93;7.03;;;;;;;;;;5263408;28;20025;-67
2022/08/22 05:56:59;;;;;;;14.80;6.60;;;;;;;;;;5262188;28;20071;-67
2022/08/22 05:59:32;;;;;;;13.80;6.38;;;;;;;;;;5262782;28;20067;-67
2022/08/22 06:02:27;;;;;;;11.82;6.88;;;;;;;;;;5263257;28;20037;-69
2022/08/22 06:04:59;;;;;;;14.38;6.28;;;;;;;;;;5262405;28;20036;-67
2022/08/22 06:07:39;;;;;;;14.57;7.00;;;;;;;;;;5262919;28;20032;-68
2022/08/22 06:10:19;;;;;;;15.38;7.28;;;;;;;;;;5263226;28;20017;-68
2022/08/22 06:12:50;;;;;;;13.30;6.88;;;;;;;;;;5261841;28;20375;-68
2022/08/22 06:15:28;;;;;;;12.35;6.93;;;;;;;;;;5262937;28;20143;-68
2022/08/22 06:18:02;;;;;;;13.50;6.88;;;;;;;;;;5262391;28;20024;-68
2022/08/22 06:20:44;;;;;;;8.45;6.72;;;;;;;;;;5262543;28;20025;-68
2022/08/22 06:23:19;;;;;;;10.23;7.03;;;;;;;;;;5262867;28;20488;-68
2022/08/22 06:25:51;;;;;;;13.38;8.07;;;;;;;;;;5261419;28;20039;-68
2022/08/22 06:28:24;;;;;;;12.68;7.85;;;;;;;;;;5262865;28;20017;-68
2022/08/22 06:30:56;;;;;;;18.05;8.27;;;;;;;;;;5262727;28;20025;-68
2022/08/22 06:33:29;;;;;;;14.63;8.32;;;;;;;;;;5261421;28;20349;-68
2022/08/22 06:39:13;;;;;;;12.88;7.65;;;;;;;;;;5261495;28;20029;-68
2022/08/22 06:41:48;;;;;;;15.80;8.50;;;;;;;;;;5261903;28;20066;-68
2022/08/22 06:44:21;;;;;;;14.55;8.32;;;;;;;;;;5262487;28;20123;-68
2022/08/22 06:46:54;;;;;;;13.45;7.93;;;;;;;;;;5261125;28;20029;-68
2022/08/22 06:49:26;;;;;;;16.75;8.50;;;;;;;;;;5269203;28;20498;-68
2022/08/22 06:52:02;;;;;;;17.00;8.45;;;;;;;;;;5282675;28;20059;-68
2022/08/22 06:54:35;;;;;;;12.20;8.02;;;;;;;;;;5280995;28;20012;-68
2022/08/22 06:57:11;;;;;;;13.88;7.85;;;;;;;;;;5282638;28;20596;-68
2022/08/22 06:59:42;;;;;;;14.65;9.05;;;;;;;;;;5282370;28;20093;-68
2022/08/22 07:02:23;;;;;;;13.48;9.02;;;;;;;;;;5281114;28;20120;-68
2022/08/22 07:04:55;;;;;;;16.33;8.30;;;;;;;;;;5281863;28;20021;-68
2022/08/22 07:07:26;;;;;;;17.90;8.32;;;;;;;;;;5281222;28;20017;-68
2022/08/22 07:09:57;;;;;;;19.60;9.05;;;;;;;;;;5282572;28;20036;-69
2022/08/22 07:12:30;;;;;;;15.55;9.50;;;;;;;;;;5281773;28;20023;-70
2022/08/22 07:15:17;;;;;;;14.65;9.65;;;;;;;;;;5281349;28;20021;-69
2022/08/22 07:17:50;;;;;;;16.80;9.80;;;;;;;;;;5281789;28;20023;-69
2022/08/22 07:20:22;;;;;;;12.35;9.70;;;;;;;;;;5281758;28;20485;-69
2022/08/22 07:22:57;;;;;;;16.63;10.57;;;;;;;;;;5281186;28;20155;-69
2022/08/22 07:25:28;;;;;;;18.35;10.40;;;;;;;;;;5281194;28;20131;-69
2022/08/22 07:28:18;;;;;;;14.50;10.35;;;;;;;;;;5281329;28;20154;-69
2022/08/22 07:30:57;;;;;;;15.10;9.85;;;;;;;;;;5281546;28;20428;-69
2022/08/22 07:33:38;;;;;;;13.85;9.40;;;;;;;;;;5280944;28;20021;-69
2022/08/22 07:36:19;;;;;;;15.85;9.93;;;;;;;;;;5281447;28;20063;-68
2022/08/22 07:39:13;;;;;;;18.95;10.68;;;;;;;;;;5281428;28;20152;-67
2022/08/22 07:41:53;;;;;;;13.25;10.00;;;;;;;;;;5280605;28;20024;-69
2022/08/22 07:44:28;;;;;;;19.75;9.65;;;;;;;;;;5280943;28;20055;-69
2022/08/22 07:47:08;;;;;;;13.05;10.02;;;;;;;;;;5281505;28;20060;-69
2022/08/22 07:49:43;;;;;;;17.60;9.48;;;;;;;;;;5280541;28;20091;-69
2022/08/22 07:52:14;;;;;;;10.05;8.25;;;;;;;;;;5282073;28;20043;-67
2022/08/22 07:54:50;;;;;;;15.73;8.75;;;;;;;;;;5274206;28;20065;-67
2022/08/22 07:57:25;;;;;;;20.80;9.35;;;;;;;;;;5264046;28;20016;-67
2022/08/22 07:59:58;;;;;;;15.18;9.25;;;;;;;;;;5270893;28;20031;-67
2022/08/22 08:02:30;;;;;;;14.27;10.13;;;;;;;;;;5259866;28;20055;-65
2022/08/22 08:05:01;;;;;;;15.43;8.50;;;;;;;;;;5259672;28;20021;-68
2022/08/22 08:07:32;;;;;;;12.48;7.85;;;;;;;;;;5260051;28;20032;-66
2022/08/22 08:10:06;;;;;;;17.00;8.35;;;;;;;;;;5260437;28;20025;-66
2022/08/22 08:12:38;;;;;;;11.13;7.90;;;;;;;;;;5259173;28;20016;-66
2022/08/22 08:15:14;;;;;;;11.73;7.47;;;;;;;;;;5260727;28;20100;-66
2022/08/22 08:17:47;;;;;;;10.68;6.90;;;;;;;;;;5259690;28;20035;-66
2022/08/22 08:20:19;;;;;;;13.73;6.15;;;;;;;;;;5260311;28;20054;-67
2022/08/22 08:22:52;;;;;;;13.50;6.95;;;;;;;;;;5259733;28;20060;-66
2022/08/22 08:25:25;;;;;;;13.30;6.47;;;;;;;;;;5259415;28;20364;-66
2022/08/22 08:30:55;;;;;;;13.23;6.93;;;;;;;;;;5259473;28;20037;-66
2022/08/22 08:33:27;;;;;;;;;;;;;;;;;;5259569;28;20053;-70
2022/08/22 08:36:04;;;;;;;12.65;5.65;;;;;;;;;;5274642;28;19989;-66
2022/08/22 08:38:48;;;;;;;14.07;4.95;;;;;;;;;;5279579;28;20020;-66
2022/08/22 08:41:31;;;;;;;12.65;5.28;;;;;;;;;;5281296;28;20017;-67
2022/08/22 08:44:15;;;;;;;13.32;6.38;;;;;;;;;;5281747;28;20023;-66
2022/08/22 08:47:06;;;;;;;12.68;4.00;;;;;;;;;;5283769;28;20036;-67
2022/08/22 08:49:42;;;;;;;10.93;3.08;;;;;;;;;;5284515;28;20075;-67
2022/08/22 08:52:24;;;;;;;11.20;2.28;;;;;;;;;;5285510;28;20086;-67
2022/08/22 08:54:58;;;;;;;11.27;4.55;;;;;;;;;;5285061;28;20024;-67
2022/08/22 08:57:32;;;;;;;8.60;3.35;;;;;;;;;;5284562;28;20016;-67
2022/08/22 09:00:16;;;;;;;12.27;3.13;;;;;;;;;;5284133;28;20067;-67
2022/08/22 09:02:47;;;;;;;10.05;3.00;;;;;;;;;;5284146;28;20407;-67
2022/08/22 09:05:30;;;;;;;8.83;1.87;;;;;;;;;;5285019;28;20027;-68
2022/08/22 09:08:26;;;;;;;13.45;2.05;;;;;;;;;;5284337;28;20525;-67
2022/08/22 09:10:57;;;;;;;6.28;1.42;;;;;;;;;;5284536;28;20102;-67
2022/08/22 09:13:47;;;;;;;8.48;1.50;;;;;;;;;;5283754;28;20056;-66
2022/08/22 09:16:39;;;;;;;10.85;1.83;;;;;;;;;;5284620;28;20111;-66
2022/08/22 09:19:21;;;;;;;8.10;1.83;;;;;;;;;;5284986;28;20047;-66
2022/08/22 09:22:11;;;;;;;7.28;1.73;;;;;;;;;;5283503;28;20126;-67
2022/08/22 09:24:59;;;;;;;9.40;2.00;;;;;;;;;;5283465;28;20440;-66
2022/08/22 09:27:34;;;;;;;7.32;1.90;;;;;;;;;;5283596;28;20021;-67
2022/08/22 09:30:11;;;;;;;11.65;2.00;;;;;;;;;;5284278;28;20345;-66
2022/08/22 09:32:50;;;;;;;7.78;1.95;;;;;;;;;;5283203;28;20112;-68
2022/08/22 09:35:49;;;;;;;8.85;1.90;;;;;;;;;;5283227;28;20096;-66
2022/08/22 09:38:24;;;;;;;12.45;1.75;;;;;;;;;;5283941;28;20086;-66
2022/08/22 09:41:04;;;;;;;10.90;2.13;;;;;;;;;;5284038;28;20021;-67
2022/08/22 09:43:54;;;;;;;12.23;2.53;;;;;;;;;;5282866;28;20032;-67
2022/08/22 09:46:28;;;;;;;7.18;2.15;;;;;;;;;;5283478;28;20032;-67
2022/08/22 09:49:02;;;;;;;5.10;1.25;;;;;;;;;;5267408;28;20025;-67
2022/08/22 09:51:37;;;;;;;9.45;2.30;;;;;;;;;;5262993;28;20420;-67
2022/08/22 09:54:11;;;;;;;7.05;1.80;;;;;;;;;;5263119;28;20025;-67
2022/08/22 09:56:55;;;;;;;6.38;1.13;;;;;;;;;;5261454;28;20375;-67
2022/08/22 09:59:46;;;;;;;8.00;1.30;;;;;;;;;;5262715;28;20409;-68
2022/08/22 10:02:22;;;;;;;7.88;1.10;;;;;;;;;;5263088;28;20068;-67
2022/08/22 10:05:05;;;;;;;9.48;1.10;;;;;;;;;;5261918;28;20364;-67
2022/08/22 10:07:55;;;;;;;6.72;1.23;;;;;;;;;;5262728;28;20029;-67
2022/08/22 10:10:39;;;;;;;5.95;1.25;;;;;;;;;;5261933;28;20021;-67
2022/08/22 10:13:32;;;;;;;8.05;1.00;;;;;;;;;;5263225;28;20041;-67
2022/08/22 10:16:13;;;;;;;5.97;0.90;;;;;;;;;;5262742;28;20199;-67
2022/08/22 10:19:00;;;;;;;7.20;1.40;;;;;;;;;;5261819;28;20379;-68
2022/08/22 10:22:06;;;;;;;6.28;0.90;;;;;;;;;;5262553;28;20029;-67
2022/08/22 10:24:38;;;;;;;5.43;0.93;;;;;;;;;;5177262;28;20026;-68
2022/08/22 10:27:12;;;;;;;7.80;0.90;;;;;;;;;;5248653;28;20116;-68
2022/08/22 10:29:56;;;;;;;7.25;1.73;;;;;;;;;;5262122;28;20083;-67
2022/08/22 10:32:36;;;;;;;8.68;1.30;;;;;;;;;;5261467;28;20033;-68
2022/08/22 10:35:13;;;;;;;7.45;1.30;;;;;;;;;;5262653;28;20017;-67
2022/08/22 10:37:53;;;;;;;8.07;1.58;;;;;;;;;;5262083;28;20920;-67
2022/08/22 10:40:39;;;;;;;7.78;1.42;;;;;;;;;;5262033;28;20025;-69
2022/08/22 10:43:12;;;;;;;9.13;1.48;;;;;;;;;;5262447;28;20074;-67
2022/08/22 10:45:48;;;;;;;8.15;1.33;;;;;;;;;;5260919;28;20120;-68
2022/08/22 10:48:31;;;;;;;10.38;1.20;;;;;;;;;;5262368;28;20027;-67
2022/08/22 10:51:15;;;;;;;5.18;0.70;;;;;;;;;;5262528;28;20094;-67
2022/08/22 10:54:04;;;;;;;5.60;0.88;;;;;;;;;;5260888;28;20033;-68
2022/08/22 10:56:48;;;;;;;6.20;0.80;;;;;;;;;;5261529;28;20037;-68
2022/08/22 10:59:35;;;;;;;5.80;0.90;;;;;;;;;;5261430;28;20052;-67
2022/08/22 11:02:26;;;;;;;10.75;1.75;;;;;;;;;;5261632;28;20132;-67
2022/08/22 11:05:06;;;;;;;8.50;0.77;;;;;;;;;;5220654;28;20060;-68
2022/08/22 11:07:38;;;;;;;4.97;0.80;;;;;;;;;;5259892;28;20027;-68
2022/08/22 11:10:41;;;;;;;6.78;1.10;;;;;;;;;;5261729;28;20047;-69
2022/08/22 11:13:17;;;;;;;7.03;1.30;;;;;;;;;;5216931;28;20067;-69
2022/08/22 11:15:48;;;;;;;8.35;1.20;;;;;;;;;;5261339;28;20029;-69
2022/08/22 11:18:30;;;;;;;9.50;1.65;;;;;;;;;;5261696;28;20025;-68
2022/08/22 11:21:09;;;;;;;7.45;1.23;;;;;;;;;;5260810;28;20415;-69
2022/08/22 11:23:41;;;;;;;5.90;1.00;;;;;;;;;;5261017;28;20028;-69
2022/08/22 11:26:13;;;;;;;8.23;1.10;;;;;;;;;;5261599;28;20112;-68
2022/08/22 11:28:44;;;;;;;8.00;1.00;;;;;;;;;;5260257;28;20048;-69
2022/08/22 11:31:34;;;;;;;9.38;1.23;;;;;;;;;;5261461;28;20438;-69
2022/08/22 11:34:16;;;;;;;8.27;1.08;;;;;;;;;;5260800;28;20024;-68
2022/08/22 11:36:58;;;;;;;8.60;1.13;;;;;;;;;;5260882;28;20032;-68
2022/08/22 11:39:36;;;;;;;10.68;1.20;;;;;;;;;;5276741;28;20119;-69
2022/08/22 11:42:12;;;;;;;8.80;1.17;;;;;;;;;;5280658;28;20111;-68
2022/08/22 11:44:47;;;;;;;5.13;1.15;;;;;;;;;;5281271;28;20067;-69
2022/08/22 11:47:20;;;;;;;7.32;0.88;;;;;;;;;;5281411;28;20036;-69
2022/08/22 11:49:56;;;;;;;8.15;1.02;;;;;;;;;;5279469;28;20012;-71
2022/08/22 11:52:27;;;;;;;7.43;0.90;;;;;;;;;;5281128;28;20017;-68
2022/08/22 11:55:04;;;;;;;7.10;0.88;;;;;;;;;;5281585;28;20035;-68
2022/08/22 11:57:40;;;;;;;9.20;1.15;;;;;;;;;;5280595;28;20024;-67
2022/08/22 12:00:14;;;;;;;4.80;1.10;;;;;;;;;;5281556;28;20052;-68
2022/08/22 12:02:48;;;;;;;7.47;1.50;;;;;;;;;;5280244;28;20044;-68
2022/08/22 12:05:21;;;;;;;8.95;0.98;;;;;;;;;;5281376;28;20043;-68
2022/08/22 12:08:02;;;;;;;8.63;1.50;;;;;;;;;;5281142;28;20012;-68
2022/08/22 12:10:37;;;;;;;6.13;0.80;;;;;;;;;;5279998;28;20016;-68
2022/08/22 12:13:15;;;;;;;7.03;0.70;;;;;;;;;;5281541;28;20036;-67
2022/08/22 12:15:46;;;;;;;;;;;;;;;;;;5281281;28;20025;-68
2022/08/22 12:18:24;;;;;;;9.68;0.80;;;;;;;;;;5275043;28;19904;-67
2022/08/22 12:20:55;;;;;;;4.60;0.80;;;;;;;;;;5280850;28;20021;-67
2022/08/22 12:23:35;;;;;;;4.20;0.60;;;;;;;;;;5280002;28;20020;-67
2022/08/22 12:26:11;;;;;;;13.70;1.00;;;;;;;;;;5280758;28;20090;-67
2022/08/22 12:28:51;;;;;;;5.53;0.93;;;;;;;;;;5280790;28;20017;-67
2022/08/22 12:31:28;;;;;;;8.90;1.00;;;;;;;;;;5280713;28;20021;-67
2022/08/22 12:34:38;;;;;;;7.63;0.85;;;;;;;;;;5280616;28;20037;-67
2022/08/22 12:37:12;;;;;;;5.45;0.90;;;;;;;;;;5174060;28;20039;-67
2022/08/22 12:39:43;;;;;;;6.47;0.70;;;;;;;;;;5174218;28;20027;-68
2022/08/22 12:42:24;;;;;;;5.45;0.70;;;;;;;;;;5236767;28;20090;-67
2022/08/22 12:45:07;;;;;;;7.35;0.90;;;;;;;;;;5279819;28;20025;-67
2022/08/22 12:47:50;;;;;;;5.07;0.80;;;;;;;;;;5280648;28;20052;-67
2022/08/22 12:50:40;;;;;;;6.35;0.90;;;;;;;;;;5280958;28;20065;-68
2022/08/22 12:53:22;;;;;;;5.63;0.82;;;;;;;;;;5279569;28;20017;-67
2022/08/22 12:55:56;;;;;;;6.45;1.13;;;;;;;;;;5280238;28;20023;-68
2022/08/22 12:58:36;;;;;;;11.60;0.80;;;;;;;;;;5280500;28;20028;-68
2022/08/22 13:01:09;;;;;;;7.30;1.33;;;;;;;;;;5280888;28;20101;-68
2022/08/22 13:03:45;;;;;;;7.40;1.13;;;;;;;;;;5280345;28;20016;-67
2022/08/22 13:06:34;;;;;;;10.52;0.80;;;;;;;;;;5280150;28;20086;-69
2022/08/22 13:09:18;;;;;;;7.82;0.70;;;;;;;;;;5280681;28;20085;-68
2022/08/22 13:11:50;;;;;;;5.05;0.90;;;;;;;;;;5279646;28;20440;-69
2022/08/22 13:14:23;;;;;;;7.07;0.82;;;;;;;;;;5279818;28;20036;-69
2022/08/22 13:16:57;;;;;;;7.13;0.82;;;;;;;;;;5280565;28;20008;-69
2022/08/22 13:19:31;;;;;;;9.90;1.10;;;;;;;;;;5280462;28;20040;-69
2022/08/22 13:22:10;;;;;;;6.47;0.70;;;;;;;;;;5279995;28;20029;-69
2022/08/22 13:24:45;;;;;;;9.30;0.85;;;;;;;;;;5280094;28;20363;-69
2022/08/22 13:27:22;;;;;;;9.90;0.88;;;;;;;;;;5280182;28;20445;-68
2022/08/22 13:29:56;;;;;;;9.38;1.20;;;;;;;;;;5280271;28;20372;-69
2022/08/22 13:32:27;;;;;;;8.43;1.02;;;;;;;;;;5282691;28;20060;-69
2022/08/22 13:34:59;;;;;;;6.38;0.95;;;;;;;;;;5283733;28;20070;-69
2022/08/22 13:37:34;;;;;;;8.07;1.02;;;;;;;;;;5284068;28;20032;-69
2022/08/22 13:40:21;;;;;;;6.50;1.08;;;;;;;;;;5284416;28;20019;-69
2022/08/22 13:43:00;;;;;;;4.00;0.90;;;;;;;;;;5283110;28;20475;-69
2022/08/22 13:45:32;;;;;;;8.07;0.98;;;;;;;;;;5283619;28;20399;-69
2022/08/22 13:48:08;;;;;;;3.65;0.95;;;;;;;;;;5283740;28;20027;-69
2022/08/22 13:51:05;;;;;;;6.70;1.10;;;;;;;;;;5283698;28;20032;-69
2022/08/22 13:53:41;;;;;;;8.35;1.08;;;;;;;;;;5244671;28;20527;-70
2022/08/22 13:56:21;;;;;;;8.35;1.02;;;;;;;;;;5283594;28;20036;-69
2022/08/22 13:58:56;;;;;;;5.50;1.05;;;;;;;;;;5283691;28;20519;-69
2022/08/22 14:01:30;;;;;;;6.78;1.00;;;;;;;;;;5283141;28;20056;-70
2022/08/22 14:04:15;;;;;;;6.43;0.93;;;;;;;;;;5282560;28;20029;-69
2022/08/22 14:06:55;;;;;;;11.60;1.08;;;;;;;;;;5283207;28;20028;-69
2022/08/22 14:09:32;;;;;;;6.30;0.73;;;;;;;;;;5282618;28;20418;-70
2022/08/22 14:12:04;;;;;;;6.88;0.98;;;;;;;;;;5283670;28;20016;-69
2022/08/22 14:14:37;;;;;;;6.77;0.70;;;;;;;;;;5282832;28;20486;-69
2022/08/22 14:17:13;;;;;;;9.75;1.10;;;;;;;;;;5283376;28;20058;-69
2022/08/22 14:19:49;;;;;;;8.02;1.13;;;;;;;;;;5283347;28;20019;-69
2022/08/22 14:22:22;;;;;;;4.82;0.73;;;;;;;;;;5265217;28;20028;-70
2022/08/22 14:24:55;;;;;;;10.65;1.38;;;;;;;;;;5267923;28;20029;-68
2022/08/22 14:27:34;;;;;;;4.32;0.90;;;;;;;;;;5261550;28;20087;-69
2022/08/22 14:30:13;;;;;;;6.07;0.98;;;;;;;;;;5261422;28;20047;-69
2022/08/22 14:32:49;;;;;;;14.65;1.20;;;;;;;;;;5261622;28;20558;-70
2022/08/22 14:35:22;;;;;;;8.43;1.30;;;;;;;;;;5261803;28;20092;-69
2022/08/22 14:37:58;;;;;;;7.53;1.23;;;;;;;;;;5261612;28;20100;-69
2022/08/22 14:40:33;;;;;;;8.25;1.15;;;;;;;;;;5261388;28;20036;-69
2022/08/22 14:43:21;;;;;;;5.88;0.85;;;;;;;;;;5261869;28;20556;-68
2022/08/22 14:45:55;;;;;;;5.70;0.77;;;;;;;;;;5260530;28;20039;-68
2022/08/22 14:48:28;;;;;;;8.40;0.80;;;;;;;;;;5261691;28;20025;-68
2022/08/22 14:51:00;;;;;;;8.18;1.02;;;;;;;;;;5262152;28;20024;-69
2022/08/22 14:53:33;;;;;;;5.22;1.00;;;;;;;;;;5261513;28;20028;-69
2022/08/22 14:56:10;;;;;;;5.47;0.88;;;;;;;;;;5261814;28;20029;-69
2022/08/22 14:58:47;;;;;;;6.05;1.00;;;;;;;;;;5260799;28;20075;-69
2022/08/22 15:01:20;;;;;;;9.45;0.93;;;;;;;;;;5261397;28;20041;-69
2022/08/22 15:03:58;;;;;;;7.50;0.98;;;;;;;;;;5261167;28;20024;-69
2022/08/22 15:06:33;;;;;;;9.20;1.37;;;;;;;;;;5260278;28;20025;-69
2022/08/22 15:09:07;;;;;;;5.10;0.82;;;;;;;;;;5271981;28;20611;-69
2022/08/22 15:11:38;;;;;;;5.80;0.93;;;;;;;;;;5281960;28;20021;-69
2022/08/22 15:14:10;;;;;;;6.32;0.95;;;;;;;;;;5281773;28;20019;-69
2022/08/22 15:16:44;;;;;;;9.00;0.80;;;;;;;;;;5281872;28;20146;-69
2022/08/22 15:19:21;;;;;;;8.85;1.20;;;;;;;;;;5274682;28;20028;-69
2022/08/22 15:22:11;;;;;;;5.38;1.08;;;;;;;;;;5264837;28;20032;-69
2022/08/22 15:24:52;;;;;;;4.57;0.75;;;;;;;;;;5271597;28;20032;-69
2022/08/22 15:27:24;;;;;;;5.88;0.77;;;;;;;;;;5280825;28;20051;-68
2022/08/22 15:29:57;;;;;;;7.53;1.23;;;;;;;;;;5282064;28;20203;-67
2022/08/22 15:32:29;;;;;;;7.10;1.00;;;;;;;;;;5281277;28;20043;-68
2022/08/22 15:35:12;;;;;;;6.55;1.05;;;;;;;;;;5257561;28;20021;-68
2022/08/22 15:37:53;;;;;;;7.70;0.88;;;;;;;;;;5260293;28;20533;-68
2022/08/22 15:40:27;;;;;;;7.95;1.13;;;;;;;;;;5276722;28;20019;-68
2022/08/22 15:43:09;;;;;;;8.55;0.90;;;;;;;;;;5280658;28;20103;-68
2022/08/22 15:45:40;;;;;;;7.90;0.90;;;;;;;;;;5280042;28;20017;-68
2022/08/22 15:48:26;;;;;;;11.45;1.23;;;;;;;;;;5280461;28;20039;-69
2022/08/22 15:51:00;;;;;;;8.40;0.85;;;;;;;;;;5281484;28;20021;-69